Time;durP1;ratioP1;P1;durP2;ratioP2;P2;SDS_P1;SDS_P2;PMS_P1;PMS_P2;Temp;Humidity;BMP_temperature;BMP_pressure;BME280_temperature;BME280_humidity;BME280_pressure;Samples;Min_cycle;Max_cycle;Signal;HPM_P1;HPM_P2
2022/10/16 00:01:15;;;;;;;8.20;5.45;;;;;;;;;;4948155;28;20035;-68
2022/10/16 00:03:43;;;;;;;8.57;5.53;;;;;;;;;;4952074;28;20062;-72
2022/10/16 00:06:10;;;;;;;8.13;6.00;;;;;;;;;;4954304;28;20054;-73
2022/10/16 00:08:36;;;;;;;7.28;5.70;;;;;;;;;;4947166;28;20048;-69
2022/10/16 00:11:13;;;;;;;7.60;5.60;;;;;;;;;;4950238;28;20062;-70
2022/10/16 00:13:40;;;;;;;8.27;5.93;;;;;;;;;;4951046;28;20135;-75
2022/10/16 00:16:07;;;;;;;7.50;5.65;;;;;;;;;;4946539;28;20047;-72
2022/10/16 00:18:33;;;;;;;11.38;6.28;;;;;;;;;;4950110;28;20343;-70
2022/10/16 00:21:11;;;;;;;6.78;5.55;;;;;;;;;;4945624;28;20050;-70
2022/10/16 00:23:38;;;;;;;9.68;5.82;;;;;;;;;;4949637;28;20032;-72
2022/10/16 00:26:06;;;;;;;10.77;5.07;;;;;;;;;;4954318;28;20031;-71
2022/10/16 00:28:33;;;;;;;8.13;5.43;;;;;;;;;;4955758;28;20130;-71
2022/10/16 00:31:02;;;;;;;6.70;5.18;;;;;;;;;;4951127;28;20039;-72
2022/10/16 00:33:27;;;;;;;9.18;5.53;;;;;;;;;;4956107;28;20023;-73
2022/10/16 00:35:53;;;;;;;13.10;6.00;;;;;;;;;;4951189;28;20155;-72
2022/10/16 00:38:19;;;;;;;8.98;5.88;;;;;;;;;;4952247;28;20076;-71
2022/10/16 00:40:45;;;;;;;7.38;5.13;;;;;;;;;;4953380;28;20058;-70
2022/10/16 00:43:42;;;;;;;8.48;5.30;;;;;;;;;;4952012;28;20043;-71
2022/10/16 00:46:34;;;;;;;7.85;5.00;;;;;;;;;;4949272;28;20028;-70
2022/10/16 00:49:01;;;;;;;6.93;4.93;;;;;;;;;;4949588;28;20094;-69
2022/10/16 00:51:38;;;;;;;7.22;4.78;;;;;;;;;;4947092;28;20030;-72
2022/10/16 00:54:08;;;;;;;7.28;5.03;;;;;;;;;;4956271;28;20043;-71
2022/10/16 00:56:34;;;;;;;6.35;4.40;;;;;;;;;;4951523;28;20058;-71
2022/10/16 00:59:07;;;;;;;6.93;4.63;;;;;;;;;;4954991;28;20031;-70
2022/10/16 01:01:33;;;;;;;7.43;4.60;;;;;;;;;;4952841;28;20031;-71
2022/10/16 01:03:58;;;;;;;6.70;4.30;;;;;;;;;;4948164;28;20035;-71
2022/10/16 01:06:39;;;;;;;8.23;4.60;;;;;;;;;;4954920;28;20074;-73
2022/10/16 01:09:08;;;;;;;6.03;4.55;;;;;;;;;;4955765;28;20041;-70
2022/10/16 01:11:44;;;;;;;9.80;4.80;;;;;;;;;;4949980;28;20528;-69
2022/10/16 01:14:39;;;;;;;7.40;4.68;;;;;;;;;;4954499;28;20039;-72
2022/10/16 01:17:11;;;;;;;7.72;4.78;;;;;;;;;;4935223;28;20059;-73
2022/10/16 01:19:41;;;;;;;7.95;5.35;;;;;;;;;;4937147;29;20055;-74
2022/10/16 01:22:09;;;;;;;8.45;4.72;;;;;;;;;;4935970;29;20052;-69
2022/10/16 01:24:48;;;;;;;5.47;4.60;;;;;;;;;;4936848;29;20035;-70
2022/10/16 01:27:30;;;;;;;6.82;4.82;;;;;;;;;;4936716;29;20023;-68
2022/10/16 01:30:01;;;;;;;6.07;4.05;;;;;;;;;;4937209;29;20498;-71
2022/10/16 01:32:47;;;;;;;5.43;4.50;;;;;;;;;;4937217;29;20039;-69
2022/10/16 01:35:36;;;;;;;6.90;4.65;;;;;;;;;;4937321;29;20435;-71
2022/10/16 01:38:09;;;;;;;8.20;5.05;;;;;;;;;;4936274;29;20058;-72
2022/10/16 01:40:38;;;;;;;6.27;4.50;;;;;;;;;;4937087;29;20057;-70
2022/10/16 01:43:22;;;;;;;7.22;4.38;;;;;;;;;;4936937;29;20044;-69
2022/10/16 01:45:49;;;;;;;7.93;4.68;;;;;;;;;;4936539;29;20405;-70
2022/10/16 01:48:18;;;;;;;7.18;4.50;;;;;;;;;;4936292;29;20032;-74
2022/10/16 01:50:54;;;;;;;8.15;4.30;;;;;;;;;;4936319;29;20435;-71
2022/10/16 01:53:23;;;;;;;8.80;4.00;;;;;;;;;;4936503;29;20039;-71
2022/10/16 01:55:51;;;;;;;7.93;4.00;;;;;;;;;;4936312;29;20167;-70
2022/10/16 01:58:17;;;;;;;5.47;4.00;;;;;;;;;;4936789;29;20489;-71
2022/10/16 02:00:46;;;;;;;6.65;4.35;;;;;;;;;;4936469;29;20052;-74
2022/10/16 02:03:15;;;;;;;6.28;4.05;;;;;;;;;;4935302;29;20028;-69
2022/10/16 02:05:53;;;;;;;8.48;4.18;;;;;;;;;;4935207;29;20044;-72
2022/10/16 02:08:20;;;;;;;7.03;4.28;;;;;;;;;;4936197;29;20114;-72
2022/10/16 02:10:47;;;;;;;7.55;4.97;;;;;;;;;;4936318;29;20020;-70
2022/10/16 02:13:34;;;;;;;6.68;4.15;;;;;;;;;;4936552;29;20032;-72
2022/10/16 02:16:00;;;;;;;6.38;4.40;;;;;;;;;;4936193;29;20028;-72
2022/10/16 02:18:29;;;;;;;5.90;4.35;;;;;;;;;;4936246;29;20035;-72
2022/10/16 02:21:38;;;;;;;9.88;4.82;;;;;;;;;;4935892;29;20116;-71
2022/10/16 02:24:23;;;;;;;7.47;4.55;;;;;;;;;;4934356;29;20510;-71
2022/10/16 02:27:12;;;;;;;12.27;7.07;;;;;;;;;;4935918;29;20093;-74
2022/10/16 02:29:48;;;;;;;9.10;5.78;;;;;;;;;;4936230;29;20055;-74
2022/10/16 02:32:18;;;;;;;9.15;5.35;;;;;;;;;;4935676;29;20114;-71
2022/10/16 02:34:46;;;;;;;9.57;5.65;;;;;;;;;;4936002;29;20039;-70
2022/10/16 02:37:13;;;;;;;9.45;5.22;;;;;;;;;;4935976;29;20032;-69
2022/10/16 02:39:40;;;;;;;8.85;5.18;;;;;;;;;;4935843;29;20043;-74
2022/10/16 02:42:11;;;;;;;7.22;5.20;;;;;;;;;;4936005;29;20121;-69
2022/10/16 02:44:37;;;;;;;10.07;4.70;;;;;;;;;;4935679;29;20028;-70
2022/10/16 02:47:03;;;;;;;6.60;5.10;;;;;;;;;;4935387;29;20055;-74
2022/10/16 02:49:28;;;;;;;13.65;5.30;;;;;;;;;;4935502;29;20115;-74
2022/10/16 02:51:54;;;;;;;6.45;4.70;;;;;;;;;;4935469;29;20043;-78
2022/10/16 02:54:20;;;;;;;7.68;4.95;;;;;;;;;;4935607;29;20047;-77
2022/10/16 02:56:46;;;;;;;6.63;4.43;;;;;;;;;;4935497;29;20106;-76
2022/10/16 02:59:12;;;;;;;7.35;4.50;;;;;;;;;;4935279;29;20043;-73
2022/10/16 03:01:38;;;;;;;6.80;4.35;;;;;;;;;;4934031;29;20405;-70
2022/10/16 03:04:03;;;;;;;12.48;5.07;;;;;;;;;;4935216;29;20024;-71
2022/10/16 03:06:29;;;;;;;6.82;4.40;;;;;;;;;;4935105;29;20563;-71
2022/10/16 03:08:55;;;;;;;6.63;4.72;;;;;;;;;;4935066;29;20582;-74
2022/10/16 03:11:21;;;;;;;6.00;3.90;;;;;;;;;;4935200;29;20042;-70
2022/10/16 03:13:47;;;;;;;9.77;4.35;;;;;;;;;;4935328;29;20031;-71
2022/10/16 03:16:13;;;;;;;8.77;4.93;;;;;;;;;;4935133;29;20110;-70
2022/10/16 03:18:39;;;;;;;6.82;4.53;;;;;;;;;;4935140;29;20475;-72
2022/10/16 03:21:05;;;;;;;7.05;4.00;;;;;;;;;;4934952;29;20107;-72
2022/10/16 03:23:30;;;;;;;6.35;4.30;;;;;;;;;;4935057;29;20040;-72
2022/10/16 03:25:56;;;;;;;8.73;4.60;;;;;;;;;;4934551;29;20075;-71
2022/10/16 03:28:22;;;;;;;6.95;3.80;;;;;;;;;;4934621;29;20047;-70
2022/10/16 03:30:48;;;;;;;8.25;4.10;;;;;;;;;;4934769;29;20482;-69
2022/10/16 03:33:14;;;;;;;6.40;4.57;;;;;;;;;;4934769;29;20482;-69
2022/10/16 03:35:40;;;;;;;8.07;4.93;;;;;;;;;;4934933;29;20026;-71
2022/10/16 03:38:06;;;;;;;9.48;4.55;;;;;;;;;;4934842;29;20055;-71
2022/10/16 03:40:32;;;;;;;7.25;5.13;;;;;;;;;;4934862;29;20398;-72
2022/10/16 03:42:58;;;;;;;7.10;4.40;;;;;;;;;;4938641;29;20040;-69
2022/10/16 03:45:24;;;;;;;6.93;4.60;;;;;;;;;;4945766;28;20471;-70
2022/10/16 03:47:50;;;;;;;7.18;4.45;;;;;;;;;;4953619;29;20040;-71
2022/10/16 03:50:16;;;;;;;9.25;4.28;;;;;;;;;;4953571;29;20030;-69
2022/10/16 03:52:42;;;;;;;6.43;4.63;;;;;;;;;;4953846;29;20548;-71
2022/10/16 03:55:08;;;;;;;9.27;4.78;;;;;;;;;;4953938;28;20032;-72
2022/10/16 03:57:34;;;;;;;8.52;4.68;;;;;;;;;;4953953;28;20066;-70
2022/10/16 03:59:59;;;;;;;9.07;3.70;;;;;;;;;;4955117;28;20486;-70
2022/10/16 04:02:25;;;;;;;7.93;4.32;;;;;;;;;;4957839;28;20042;-70
2022/10/16 04:04:51;;;;;;;9.60;5.38;;;;;;;;;;4957533;28;20038;-71
2022/10/16 04:07:17;;;;;;;8.25;4.78;;;;;;;;;;4957278;28;20090;-72
2022/10/16 04:09:43;;;;;;;8.35;5.07;;;;;;;;;;4957692;28;20086;-70
2022/10/16 04:12:09;;;;;;;17.30;5.30;;;;;;;;;;4957804;28;20217;-70
2022/10/16 04:14:35;;;;;;;9.68;4.68;;;;;;;;;;4968943;28;20043;-71
2022/10/16 04:17:00;;;;;;;9.27;5.32;;;;;;;;;;4957193;28;20043;-71
2022/10/16 04:19:26;;;;;;;8.48;4.97;;;;;;;;;;4957076;28;20129;-72
2022/10/16 04:21:52;;;;;;;11.98;5.50;;;;;;;;;;4956528;28;20109;-73
2022/10/16 04:24:18;;;;;;;11.23;5.38;;;;;;;;;;4955976;28;20086;-74
2022/10/16 04:26:43;;;;;;;9.55;5.38;;;;;;;;;;4957278;28;20058;-74
2022/10/16 04:29:09;;;;;;;7.05;4.55;;;;;;;;;;4957441;28;20062;-72
2022/10/16 04:31:35;;;;;;;7.05;4.82;;;;;;;;;;4941436;28;20039;-69
2022/10/16 04:34:01;;;;;;;7.72;4.70;;;;;;;;;;4938257;29;20023;-74
2022/10/16 04:36:27;;;;;;;8.38;4.72;;;;;;;;;;4939207;29;20043;-72
2022/10/16 04:38:52;;;;;;;7.32;4.97;;;;;;;;;;4938978;29;20471;-69
2022/10/16 04:41:18;;;;;;;8.95;5.25;;;;;;;;;;4938858;29;20140;-73
2022/10/16 04:43:44;;;;;;;8.90;5.30;;;;;;;;;;4939110;29;20050;-71
2022/10/16 04:46:10;;;;;;;8.93;5.45;;;;;;;;;;4943604;29;20043;-75
2022/10/16 04:48:36;;;;;;;5.25;4.35;;;;;;;;;;4947868;28;20070;-69
2022/10/16 04:51:01;;;;;;;5.72;4.38;;;;;;;;;;4950194;29;20364;-77
2022/10/16 04:53:27;;;;;;;6.03;4.30;;;;;;;;;;4957743;28;20083;-74
2022/10/16 04:55:53;;;;;;;5.97;4.38;;;;;;;;;;4957832;28;20034;-70
2022/10/16 04:58:20;;;;;;;7.10;3.97;;;;;;;;;;4956259;28;20039;-70
2022/10/16 05:00:46;;;;;;;7.85;4.55;;;;;;;;;;4953064;28;20038;-70
2022/10/16 05:03:13;;;;;;;9.05;4.82;;;;;;;;;;4945319;29;20024;-70
2022/10/16 05:05:44;;;;;;;6.95;3.60;;;;;;;;;;4946681;28;20035;-69
2022/10/16 05:08:11;;;;;;;5.10;4.18;;;;;;;;;;4947892;28;20031;-70
2022/10/16 05:10:37;;;;;;;7.13;4.55;;;;;;;;;;4947647;29;20032;-71
2022/10/16 05:13:03;;;;;;;6.88;4.85;;;;;;;;;;4943180;29;20028;-74
2022/10/16 05:15:29;;;;;;;6.15;4.35;;;;;;;;;;4946918;28;20036;-68
2022/10/16 05:17:55;;;;;;;6.47;4.57;;;;;;;;;;4946674;29;20135;-68
2022/10/16 05:20:22;;;;;;;10.82;4.60;;;;;;;;;;4947757;29;20024;-69
2022/10/16 05:22:48;;;;;;;8.75;4.85;;;;;;;;;;4948374;29;20035;-69
2022/10/16 05:25:14;;;;;;;8.77;4.57;;;;;;;;;;4942980;29;20039;-71
2022/10/16 05:27:40;;;;;;;6.43;4.68;;;;;;;;;;4945757;29;20035;-69
2022/10/16 05:30:07;;;;;;;8.50;4.68;;;;;;;;;;4946868;29;20362;-72
2022/10/16 05:32:33;;;;;;;6.45;4.43;;;;;;;;;;4956955;28;20054;-72
2022/10/16 05:34:59;;;;;;;9.18;4.75;;;;;;;;;;4957313;28;20052;-68
2022/10/16 05:37:27;;;;;;;6.38;4.65;;;;;;;;;;4954959;28;21575;-73
2022/10/16 05:39:53;;;;;;;6.88;5.00;;;;;;;;;;4945026;29;20039;-69
2022/10/16 05:42:19;;;;;;;10.30;5.30;;;;;;;;;;4945990;29;20394;-68
2022/10/16 05:44:44;;;;;;;8.93;4.88;;;;;;;;;;4946815;28;20072;-70
2022/10/16 05:47:14;;;;;;;8.80;5.00;;;;;;;;;;4947375;29;20158;-69
2022/10/16 05:49:40;;;;;;;8.27;4.65;;;;;;;;;;4947992;28;20044;-74
2022/10/16 05:52:06;;;;;;;7.82;4.38;;;;;;;;;;4942554;28;20515;-74
2022/10/16 05:54:32;;;;;;;7.32;4.70;;;;;;;;;;4942829;28;20034;-68
2022/10/16 05:56:57;;;;;;;5.70;4.72;;;;;;;;;;4955100;28;20035;-71
2022/10/16 05:59:23;;;;;;;8.25;5.18;;;;;;;;;;4947460;28;20111;-70
2022/10/16 06:01:49;;;;;;;10.25;5.30;;;;;;;;;;4949983;28;20050;-69
2022/10/16 06:04:15;;;;;;;8.50;5.63;;;;;;;;;;4954898;28;20058;-69
2022/10/16 06:06:41;;;;;;;12.82;5.85;;;;;;;;;;4953287;28;20115;-70
2022/10/16 06:09:07;;;;;;;9.38;5.38;;;;;;;;;;4957233;28;20024;-67
2022/10/16 06:11:33;;;;;;;6.60;4.82;;;;;;;;;;4949232;28;20032;-69
2022/10/16 06:14:02;;;;;;;8.68;4.45;;;;;;;;;;4952248;28;20035;-69
2022/10/16 06:16:28;;;;;;;6.03;4.57;;;;;;;;;;4952968;28;20046;-71
2022/10/16 06:18:59;;;;;;;6.47;4.78;;;;;;;;;;4950221;28;20035;-72
2022/10/16 06:21:26;;;;;;;11.82;4.70;;;;;;;;;;4943093;28;20490;-72
2022/10/16 06:23:53;;;;;;;6.50;4.25;;;;;;;;;;4956995;28;20436;-71
2022/10/16 06:26:21;;;;;;;8.13;3.97;;;;;;;;;;4952237;28;20046;-71
2022/10/16 06:28:47;;;;;;;7.75;4.88;;;;;;;;;;4949780;28;20118;-69
2022/10/16 06:31:14;;;;;;;6.72;4.28;;;;;;;;;;4952051;28;20089;-70
2022/10/16 06:33:40;;;;;;;5.80;4.47;;;;;;;;;;4952465;28;20040;-68
2022/10/16 06:36:14;;;;;;;7.72;4.57;;;;;;;;;;4947713;28;20466;-71
2022/10/16 06:38:41;;;;;;;6.25;4.35;;;;;;;;;;4954918;28;20086;-70
2022/10/16 06:41:09;;;;;;;9.55;4.78;;;;;;;;;;4955448;28;20129;-73
2022/10/16 06:43:35;;;;;;;8.55;4.90;;;;;;;;;;4956522;28;20351;-69
2022/10/16 06:46:02;;;;;;;10.15;4.40;;;;;;;;;;4955975;28;20035;-70
2022/10/16 06:48:29;;;;;;;8.93;4.22;;;;;;;;;;4955782;28;20039;-75
2022/10/16 06:51:08;;;;;;;7.90;4.20;;;;;;;;;;4951506;28;20028;-70
2022/10/16 06:53:35;;;;;;;8.27;4.43;;;;;;;;;;4940649;28;20042;-72
2022/10/16 06:56:30;;;;;;;9.90;4.20;;;;;;;;;;4944983;28;20069;-74
2022/10/16 06:58:56;;;;;;;7.43;3.80;;;;;;;;;;4946526;28;20375;-72
2022/10/16 07:01:23;;;;;;;7.68;3.58;;;;;;;;;;4948585;28;20038;-70
2022/10/16 07:03:50;;;;;;;6.18;3.78;;;;;;;;;;4941599;28;20118;-68
2022/10/16 07:06:19;;;;;;;5.97;4.25;;;;;;;;;;4945366;28;20030;-74
2022/10/16 07:08:46;;;;;;;19.48;5.93;;;;;;;;;;4948994;28;20038;-72
2022/10/16 07:11:15;;;;;;;10.13;5.43;;;;;;;;;;4948966;28;20066;-71
2022/10/16 07:13:43;;;;;;;5.90;4.20;;;;;;;;;;4947771;28;20031;-75
2022/10/16 07:16:11;;;;;;;7.88;4.47;;;;;;;;;;4951326;28;20052;-72
2022/10/16 07:18:40;;;;;;;8.00;4.40;;;;;;;;;;4946660;28;20030;-75
2022/10/16 07:21:25;;;;;;;6.28;4.30;;;;;;;;;;4944332;28;20043;-75
2022/10/16 07:23:52;;;;;;;5.90;4.45;;;;;;;;;;4950607;28;20036;-70
2022/10/16 07:26:18;;;;;;;6.57;4.20;;;;;;;;;;4947795;28;20451;-74
2022/10/16 07:28:43;;;;;;;9.20;4.20;;;;;;;;;;4949825;28;20074;-76
2022/10/16 07:31:12;;;;;;;7.35;4.00;;;;;;;;;;4947280;28;20074;-75
2022/10/16 07:33:39;;;;;;;6.72;3.80;;;;;;;;;;4956386;28;20074;-70
2022/10/16 07:36:06;;;;;;;8.05;3.95;;;;;;;;;;4946971;28;20458;-76
2022/10/16 07:38:32;;;;;;;7.18;3.75;;;;;;;;;;4950732;28;20426;-69
2022/10/16 07:41:06;;;;;;;6.95;4.03;;;;;;;;;;4941359;28;20035;-73
2022/10/16 07:43:33;;;;;;;6.75;4.05;;;;;;;;;;4945364;28;20031;-69
2022/10/16 07:45:59;;;;;;;6.07;4.20;;;;;;;;;;4946768;28;20458;-71
2022/10/16 07:48:32;;;;;;;7.25;3.67;;;;;;;;;;4950889;28;20490;-69
2022/10/16 07:50:59;;;;;;;10.20;3.60;;;;;;;;;;4941244;28;20478;-71
2022/10/16 07:53:26;;;;;;;6.35;3.80;;;;;;;;;;4950575;28;20035;-70
2022/10/16 07:55:52;;;;;;;7.25;3.50;;;;;;;;;;4947875;28;20030;-73
2022/10/16 07:58:18;;;;;;;6.00;3.50;;;;;;;;;;4950567;28;20031;-74
2022/10/16 08:00:44;;;;;;;9.23;3.92;;;;;;;;;;4942873;28;20094;-78
2022/10/16 08:03:09;;;;;;;9.95;4.25;;;;;;;;;;4942679;28;20095;-70
2022/10/16 08:05:35;;;;;;;6.05;4.00;;;;;;;;;;4948790;28;20051;-71
2022/10/16 08:08:02;;;;;;;6.57;4.05;;;;;;;;;;4947407;28;20055;-71
2022/10/16 08:10:29;;;;;;;7.03;4.40;;;;;;;;;;4946186;28;20042;-72
2022/10/16 08:12:55;;;;;;;5.82;3.92;;;;;;;;;;4946091;28;20019;-73
2022/10/16 08:15:21;;;;;;;8.05;4.60;;;;;;;;;;4949123;28;20039;-70
2022/10/16 08:18:14;;;;;;;9.07;4.53;;;;;;;;;;4948599;28;20386;-72
2022/10/16 08:20:42;;;;;;;5.97;4.40;;;;;;;;;;4943247;28;20047;-69
2022/10/16 08:23:10;;;;;;;9.45;4.43;;;;;;;;;;4951698;28;20450;-70
2022/10/16 08:25:37;;;;;;;8.30;4.60;;;;;;;;;;4937614;28;20032;-75
2022/10/16 08:28:09;;;;;;;6.43;4.35;;;;;;;;;;4945552;28;20498;-73
2022/10/16 08:30:35;;;;;;;5.97;3.97;;;;;;;;;;4945587;28;20032;-73
2022/10/16 08:33:02;;;;;;;7.25;4.25;;;;;;;;;;4948122;28;20505;-75
2022/10/16 08:35:27;;;;;;;5.88;3.83;;;;;;;;;;4949192;28;20496;-73
2022/10/16 08:37:53;;;;;;;7.45;4.78;;;;;;;;;;4944298;28;20110;-72
2022/10/16 08:40:24;;;;;;;6.75;4.35;;;;;;;;;;4952943;28;20062;-75
2022/10/16 08:43:20;;;;;;;8.93;4.25;;;;;;;;;;4960400;28;20451;-76
2022/10/16 08:45:58;;;;;;;5.45;3.97;;;;;;;;;;4953545;28;20047;-72
2022/10/16 08:48:35;;;;;;;6.57;4.20;;;;;;;;;;4954982;28;20046;-71
2022/10/16 08:51:03;;;;;;;5.90;4.05;;;;;;;;;;4947175;28;20058;-74
2022/10/16 08:53:36;;;;;;;6.68;4.07;;;;;;;;;;4938484;28;20032;-70
2022/10/16 08:56:02;;;;;;;5.97;3.60;;;;;;;;;;4944677;28;20083;-75
2022/10/16 08:58:29;;;;;;;7.65;3.92;;;;;;;;;;4951948;28;20417;-76
2022/10/16 09:01:01;;;;;;;7.50;4.43;;;;;;;;;;4953936;28;20074;-72
2022/10/16 09:03:33;;;;;;;9.70;5.40;;;;;;;;;;4951193;28;20036;-70
2022/10/16 09:06:29;;;;;;;8.40;4.95;;;;;;;;;;4954375;28;20027;-71
2022/10/16 09:08:57;;;;;;;7.45;4.80;;;;;;;;;;4949912;28;20096;-72
2022/10/16 09:11:45;;;;;;;8.05;3.92;;;;;;;;;;4953870;28;20034;-69
2022/10/16 09:14:31;;;;;;;10.45;4.85;;;;;;;;;;4951774;28;20107;-70
2022/10/16 09:17:04;;;;;;;9.00;5.25;;;;;;;;;;4954105;28;20035;-71
2022/10/16 09:20:15;;;;;;;7.50;4.15;;;;;;;;;;4950579;28;20035;-69
2022/10/16 09:22:41;;;;;;;9.65;4.75;;;;;;;;;;4943399;28;20410;-69
2022/10/16 09:25:16;;;;;;;7.72;4.65;;;;;;;;;;4951483;28;20043;-72
2022/10/16 09:27:45;;;;;;;8.80;5.07;;;;;;;;;;4948137;28;20034;-70
2022/10/16 09:30:17;;;;;;;9.10;4.65;;;;;;;;;;4954706;28;20031;-70
2022/10/16 09:32:45;;;;;;;8.32;4.63;;;;;;;;;;4960157;28;20388;-73
2022/10/16 09:35:16;;;;;;;8.27;5.18;;;;;;;;;;4953669;28;20025;-77
2022/10/16 09:37:49;;;;;;;10.60;7.53;;;;;;;;;;4951390;28;20035;-71
2022/10/16 09:40:30;;;;;;;8.77;5.80;;;;;;;;;;4948754;28;20474;-72
2022/10/16 09:43:33;;;;;;;7.68;5.10;;;;;;;;;;4952221;28;20039;-68
2022/10/16 09:46:05;;;;;;;8.97;4.57;;;;;;;;;;4955125;28;20386;-77
2022/10/16 09:48:42;;;;;;;7.43;5.25;;;;;;;;;;4950665;28;20060;-75
2022/10/16 09:51:31;;;;;;;6.70;4.03;;;;;;;;;;4941639;28;20114;-76
2022/10/16 09:54:00;;;;;;;12.45;7.60;;;;;;;;;;4950741;28;20366;-71
2022/10/16 09:56:27;;;;;;;10.95;6.68;;;;;;;;;;4945772;28;20023;-73
2022/10/16 09:58:55;;;;;;;7.20;4.50;;;;;;;;;;4951136;28;20435;-71
2022/10/16 10:01:29;;;;;;;9.10;4.57;;;;;;;;;;4949896;28;20122;-76
2022/10/16 10:04:02;;;;;;;10.98;5.70;;;;;;;;;;4955389;28;20085;-74
2022/10/16 10:06:34;;;;;;;21.07;13.33;;;;;;;;;;4951926;28;20035;-77
2022/10/16 10:09:22;;;;;;;9.65;6.60;;;;;;;;;;4947779;28;20281;-73
2022/10/16 10:11:50;;;;;;;22.08;12.02;;;;;;;;;;4949180;28;20447;-73
2022/10/16 10:14:25;;;;;;;14.07;8.60;;;;;;;;;;4949981;28;20041;-76
2022/10/16 10:17:06;;;;;;;9.98;5.20;;;;;;;;;;4950675;28;20180;-71
2022/10/16 10:19:50;;;;;;;7.22;4.80;;;;;;;;;;4944956;28;20114;-73
2022/10/16 10:22:24;;;;;;;;;;;;;;;;;;4947852;28;20506;-73
2022/10/16 10:25:13;;;;;;;10.43;4.63;;;;;;;;;;4947831;28;19919;-69
2022/10/16 10:28:03;;;;;;;14.60;8.15;;;;;;;;;;4950989;28;20086;-73
2022/10/16 10:30:59;;;;;;;10.02;5.78;;;;;;;;;;4949425;28;20053;-70
2022/10/16 10:33:43;;;;;;;7.60;5.28;;;;;;;;;;4948183;28;20143;-75
2022/10/16 10:36:34;;;;;;;11.55;4.60;;;;;;;;;;4945886;28;20032;-73
2022/10/16 10:39:13;;;;;;;9.73;5.15;;;;;;;;;;4953190;28;20110;-68
2022/10/16 10:42:16;;;;;;;10.93;5.30;;;;;;;;;;4948615;28;20043;-69
2022/10/16 10:44:50;;;;;;;9.05;5.90;;;;;;;;;;4950588;28;20039;-70
2022/10/16 10:47:39;;;;;;;13.60;5.90;;;;;;;;;;4949381;28;20035;-75
2022/10/16 10:50:26;;;;;;;14.68;8.50;;;;;;;;;;4930019;28;20039;-70
2022/10/16 10:53:00;;;;;;;13.55;7.45;;;;;;;;;;4948235;28;20489;-75
2022/10/16 10:56:07;;;;;;;9.18;5.07;;;;;;;;;;4948715;28;20110;-73
2022/10/16 10:58:51;;;;;;;7.72;5.20;;;;;;;;;;4908925;29;20067;-68
2022/10/16 11:01:35;;;;;;;8.30;5.15;;;;;;;;;;4947980;28;20125;-72
2022/10/16 11:04:23;;;;;;;12.70;6.28;;;;;;;;;;4943384;28;20031;-68
2022/10/16 11:06:59;;;;;;;16.50;10.10;;;;;;;;;;4954027;28;20031;-75
2022/10/16 11:09:31;;;;;;;17.00;8.70;;;;;;;;;;4949292;28;20043;-74
2022/10/16 11:12:12;;;;;;;8.50;5.38;;;;;;;;;;4950112;28;20047;-73
2022/10/16 11:14:50;;;;;;;10.57;6.35;;;;;;;;;;4951832;28;20448;-71
2022/10/16 11:17:29;;;;;;;7.63;5.32;;;;;;;;;;4948968;28;20131;-68
2022/10/16 11:20:13;;;;;;;9.07;5.07;;;;;;;;;;4947020;28;20039;-71
2022/10/16 11:22:44;;;;;;;7.40;4.93;;;;;;;;;;4949406;28;20039;-72
2022/10/16 11:25:36;;;;;;;7.40;4.63;;;;;;;;;;4947820;28;20050;-70
2022/10/16 11:28:16;;;;;;;6.88;4.57;;;;;;;;;;4950857;28;20037;-69
2022/10/16 11:31:17;;;;;;;12.85;4.97;;;;;;;;;;4948032;28;20039;-74
2022/10/16 11:33:49;;;;;;;13.30;4.72;;;;;;;;;;4951930;28;20043;-71
2022/10/16 11:36:40;;;;;;;8.07;5.67;;;;;;;;;;4944358;28;20426;-70
2022/10/16 11:39:26;;;;;;;38.42;22.33;;;;;;;;;;4946738;28;20478;-74
2022/10/16 11:41:56;;;;;;;21.30;14.52;;;;;;;;;;4952590;28;20071;-73
2022/10/16 11:44:41;;;;;;;11.30;7.10;;;;;;;;;;4950898;28;20117;-71
2022/10/16 11:47:22;;;;;;;19.17;11.55;;;;;;;;;;4941598;28;20118;-77
2022/10/16 11:49:52;;;;;;;8.50;5.78;;;;;;;;;;4951278;28;20035;-73
2022/10/16 11:52:44;;;;;;;10.13;6.80;;;;;;;;;;4949341;28;20094;-73
2022/10/16 11:55:20;;;;;;;10.35;5.90;;;;;;;;;;4938531;28;20043;-76
2022/10/16 11:57:54;;;;;;;8.48;5.00;;;;;;;;;;4934251;29;20040;-75
2022/10/16 12:00:31;;;;;;;7.18;4.85;;;;;;;;;;4933867;29;20079;-72
2022/10/16 12:03:18;;;;;;;5.95;5.03;;;;;;;;;;4934589;29;20040;-68
2022/10/16 12:05:50;;;;;;;9.25;5.40;;;;;;;;;;4933813;29;20048;-72
2022/10/16 12:08:17;;;;;;;44.28;27.27;;;;;;;;;;4935116;29;20036;-76
2022/10/16 12:10:45;;;;;;;21.33;13.13;;;;;;;;;;4935215;29;20027;-70
2022/10/16 12:13:37;;;;;;;9.20;6.10;;;;;;;;;;4935227;29;20427;-71
2022/10/16 12:16:12;;;;;;;8.02;5.13;;;;;;;;;;4935235;29;20083;-70
2022/10/16 12:18:41;;;;;;;20.10;12.13;;;;;;;;;;4935219;29;20046;-75
2022/10/16 12:21:08;;;;;;;30.13;20.98;;;;;;;;;;4936521;29;20046;-74
2022/10/16 12:23:46;;;;;;;18.10;12.77;;;;;;;;;;4938708;29;20175;-74
2022/10/16 12:26:12;;;;;;;11.48;7.82;;;;;;;;;;4938952;29;20494;-70
2022/10/16 12:28:40;;;;;;;14.38;9.52;;;;;;;;;;4938874;29;20032;-76
2022/10/16 12:31:09;;;;;;;14.27;8.23;;;;;;;;;;4938983;29;20039;-76
2022/10/16 12:33:39;;;;;;;33.03;20.05;;;;;;;;;;4938957;29;20036;-70
2022/10/16 12:36:27;;;;;;;59.90;38.75;;;;;;;;;;4938704;29;20035;-71
2022/10/16 12:38:54;;;;;;;22.30;15.43;;;;;;;;;;4938904;29;20039;-71
2022/10/16 12:41:31;;;;;;;41.75;26.08;;;;;;;;;;4938652;29;20410;-69
2022/10/16 12:44:01;;;;;;;26.00;16.27;;;;;;;;;;4938928;29;20047;-68
2022/10/16 12:46:29;;;;;;;12.63;6.93;;;;;;;;;;4938719;29;20038;-69
2022/10/16 12:49:13;;;;;;;10.82;6.80;;;;;;;;;;4938526;29;20038;-68
2022/10/16 12:51:40;;;;;;;9.27;5.65;;;;;;;;;;4938787;29;20115;-69
2022/10/16 12:54:19;;;;;;;8.32;5.38;;;;;;;;;;4938559;29;20031;-68
2022/10/16 12:57:17;;;;;;;6.85;5.10;;;;;;;;;;4938620;29;20119;-69
2022/10/16 13:00:14;;;;;;;9.65;5.57;;;;;;;;;;4938654;29;20095;-75
2022/10/16 13:02:59;;;;;;;7.70;5.65;;;;;;;;;;4938401;29;20486;-67
2022/10/16 13:05:24;;;;;;;9.93;5.65;;;;;;;;;;4937193;29;20047;-71
2022/10/16 13:08:12;;;;;;;8.02;4.78;;;;;;;;;;4938220;29;20040;-72
2022/10/16 13:11:05;;;;;;;6.82;4.63;;;;;;;;;;4938213;29;20036;-69
2022/10/16 13:14:08;;;;;;;9.13;5.60;;;;;;;;;;4938265;29;20477;-74
2022/10/16 13:16:34;;;;;;;11.68;6.00;;;;;;;;;;4937024;29;20036;-74
2022/10/16 13:19:31;;;;;;;14.30;7.53;;;;;;;;;;4938112;29;20036;-72
2022/10/16 13:22:02;;;;;;;7.93;5.57;;;;;;;;;;4938057;29;20094;-70
2022/10/16 13:25:05;;;;;;;12.90;6.70;;;;;;;;;;4938247;29;20105;-69
2022/10/16 13:27:42;;;;;;;9.48;6.30;;;;;;;;;;4938013;29;20032;-75
2022/10/16 13:30:38;;;;;;;9.82;5.80;;;;;;;;;;4956134;29;20031;-72
2022/10/16 13:33:19;;;;;;;9.55;5.90;;;;;;;;;;4954744;28;20047;-70
2022/10/16 13:35:54;;;;;;;23.33;13.88;;;;;;;;;;4956932;29;20040;-68
2022/10/16 13:38:28;;;;;;;33.92;22.80;;;;;;;;;;4956639;28;20062;-71
2022/10/16 13:41:21;;;;;;;12.77;5.45;;;;;;;;;;4956371;28;20039;-70
2022/10/16 13:43:55;;;;;;;9.50;4.95;;;;;;;;;;4956567;29;20063;-73
2022/10/16 13:46:23;;;;;;;7.30;5.30;;;;;;;;;;4956537;28;20062;-69
2022/10/16 13:49:00;;;;;;;8.63;5.43;;;;;;;;;;4955057;29;20426;-71
2022/10/16 13:51:27;;;;;;;16.23;11.82;;;;;;;;;;4956704;28;20035;-72
2022/10/16 13:53:56;;;;;;;7.88;6.20;;;;;;;;;;4956899;28;20043;-72
2022/10/16 13:56:26;;;;;;;18.42;13.50;;;;;;;;;;4955623;29;20086;-71
2022/10/16 13:59:06;;;;;;;11.45;7.13;;;;;;;;;;4956382;28;20086;-70
2022/10/16 14:01:41;;;;;;;11.25;5.18;;;;;;;;;;4956535;28;20050;-69
2022/10/16 14:04:13;;;;;;;15.05;9.77;;;;;;;;;;4956403;28;20035;-73
2022/10/16 14:06:44;;;;;;;9.90;7.78;;;;;;;;;;4956432;29;20430;-70
2022/10/16 14:09:24;;;;;;;6.82;5.15;;;;;;;;;;4956158;29;20039;-72
2022/10/16 14:11:54;;;;;;;9.95;5.47;;;;;;;;;;4956212;28;20045;-74
2022/10/16 14:14:20;;;;;;;13.70;5.80;;;;;;;;;;4955249;29;20082;-71
2022/10/16 14:16:46;;;;;;;8.52;5.20;;;;;;;;;;4956134;28;20084;-70
2022/10/16 14:19:17;;;;;;;6.75;4.68;;;;;;;;;;4955911;29;20039;-71
2022/10/16 14:21:43;;;;;;;13.07;5.65;;;;;;;;;;4956087;28;20089;-69
2022/10/16 14:24:22;;;;;;;8.55;5.20;;;;;;;;;;4956490;28;20071;-73
2022/10/16 14:26:49;;;;;;;7.57;5.18;;;;;;;;;;4956241;28;20483;-71
2022/10/16 14:29:18;;;;;;;8.13;4.82;;;;;;;;;;4956044;28;20039;-68
2022/10/16 14:32:01;;;;;;;7.57;4.80;;;;;;;;;;4955879;28;20490;-68
2022/10/16 14:34:36;;;;;;;9.13;5.22;;;;;;;;;;4955729;28;20094;-73
2022/10/16 14:37:10;;;;;;;9.98;5.70;;;;;;;;;;4955561;28;20421;-71
2022/10/16 14:39:36;;;;;;;6.70;4.80;;;;;;;;;;4955623;28;20035;-74
2022/10/16 14:42:16;;;;;;;10.15;4.47;;;;;;;;;;4955283;28;20032;-76
2022/10/16 14:44:42;;;;;;;5.80;4.38;;;;;;;;;;4954930;28;20074;-68
2022/10/16 14:47:14;;;;;;;7.65;4.80;;;;;;;;;;4955099;29;20408;-68
2022/10/16 14:49:41;;;;;;;6.72;4.75;;;;;;;;;;4955302;28;20505;-71
2022/10/16 14:52:11;;;;;;;8.48;4.32;;;;;;;;;;4955243;28;20826;-69
2022/10/16 14:54:38;;;;;;;8.38;4.88;;;;;;;;;;4955253;28;20371;-69
2022/10/16 14:57:04;;;;;;;7.70;5.10;;;;;;;;;;4955412;28;20043;-69
2022/10/16 14:59:37;;;;;;;6.05;3.97;;;;;;;;;;4955320;29;20046;-69
2022/10/16 15:02:23;;;;;;;7.15;4.50;;;;;;;;;;4954922;29;20069;-68
2022/10/16 15:04:49;;;;;;;6.95;4.13;;;;;;;;;;4954958;28;20038;-70
2022/10/16 15:07:15;;;;;;;7.53;4.80;;;;;;;;;;4954743;28;20023;-69
2022/10/16 15:09:41;;;;;;;7.35;4.70;;;;;;;;;;4954801;29;20110;-69
2022/10/16 15:12:07;;;;;;;7.32;4.72;;;;;;;;;;4954853;28;20122;-67